createdAt,value
2018-04-13T00:00:33.396Z,996.76
2018-04-13T00:01:33.334Z,996.75
2018-04-13T00:02:33.371Z,996.82
2018-04-13T00:03:33.305Z,996.76
2018-04-13T00:04:33.948Z,996.73
2018-04-13T00:05:33.297Z,996.71
2018-04-13T00:06:33.720Z,996.75
2018-04-13T00:07:33.264Z,996.77
2018-04-13T00:08:33.244Z,996.70
2018-04-13T00:09:33.237Z,996.68
2018-04-13T00:10:33.519Z,996.66
2018-04-13T00:11:33.205Z,996.68
2018-04-13T00:12:33.249Z,996.72
2018-04-13T00:13:33.187Z,996.80
2018-04-13T00:14:33.268Z,996.79
2018-04-13T00:15:33.153Z,996.84
2018-04-13T00:16:33.445Z,996.85
2018-04-13T00:17:33.130Z,996.85
2018-04-13T00:18:33.172Z,996.81
2018-04-13T00:19:33.104Z,996.82
2018-04-13T00:21:33.080Z,996.69
2018-04-13T00:22:33.071Z,996.69
2018-04-13T00:23:33.351Z,996.74
2018-04-13T00:24:33.088Z,996.82
2018-04-13T00:25:33.039Z,996.79
2018-04-13T00:26:33.016Z,996.76
2018-04-13T00:27:33.002Z,996.78
2018-04-13T00:28:32.990Z,996.86
2018-04-13T00:29:33.370Z,996.90
2018-04-13T00:30:33.166Z,996.83
2018-04-13T00:31:32.952Z,996.90
2018-04-13T00:32:32.938Z,996.83
2018-04-13T00:33:32.927Z,996.79
2018-04-13T00:34:32.911Z,996.77
2018-04-13T00:35:33.321Z,996.68
2018-04-13T00:37:32.925Z,996.54
2018-04-13T00:38:32.859Z,996.54
2018-04-13T00:39:32.852Z,996.53
2018-04-13T00:40:32.835Z,996.53
2018-04-13T00:41:33.131Z,996.49
2018-04-13T00:42:32.914Z,996.46
2018-04-13T00:43:32.847Z,996.45
2018-04-13T00:44:32.781Z,996.48
2018-04-13T00:45:33.119Z,996.46
2018-04-13T00:46:32.755Z,996.38
2018-04-13T00:47:32.740Z,996.35
2018-04-13T00:48:33.027Z,996.30
2018-04-13T00:49:32.774Z,996.25
2018-04-13T00:50:32.702Z,996.24
2018-04-13T00:51:32.689Z,996.20
2018-04-13T00:52:32.678Z,996.15
2018-04-13T00:53:32.663Z,996.17
2018-04-13T00:54:32.664Z,996.13
2018-04-13T00:55:32.987Z,996.12
2018-04-13T00:56:32.729Z,996.10
2018-04-13T00:57:32.610Z,996.12
2018-04-13T00:58:32.605Z,996.13
2018-04-13T00:59:32.589Z,996.13
2018-04-13T01:00:32.573Z,996.16
2018-04-13T01:01:32.710Z,996.09
2018-04-13T01:02:32.996Z,996.12
2018-04-13T01:04:32.521Z,996.18
2018-04-13T01:05:32.503Z,996.19
2018-04-13T01:06:32.493Z,996.24
2018-04-13T01:07:32.482Z,996.28
2018-04-13T01:08:32.518Z,996.31
2018-04-13T01:09:32.753Z,996.34
2018-04-13T01:10:32.444Z,996.32
2018-04-13T01:11:32.428Z,996.34
2018-04-13T01:12:32.416Z,996.27
2018-04-13T01:13:32.398Z,996.31
2018-04-13T01:14:32.439Z,996.32
2018-04-13T01:16:32.812Z,996.27
2018-04-13T01:17:32.349Z,996.26
2018-04-13T01:18:32.337Z,996.21
2018-04-13T01:19:32.320Z,996.24
2018-04-13T01:20:32.314Z,996.27
2018-04-13T01:21:32.296Z,996.33
2018-04-13T01:22:32.341Z,996.37
2018-04-13T01:23:32.571Z,996.40
2018-04-13T01:24:32.257Z,996.45
2018-04-13T01:25:32.256Z,996.40
2018-04-13T01:26:32.229Z,996.41
2018-04-13T01:27:32.317Z,996.39
2018-04-13T01:28:32.553Z,996.38
2018-04-13T01:29:32.192Z,996.38
2018-04-13T01:30:32.480Z,996.36
2018-04-13T01:31:32.163Z,996.36
2018-04-13T01:32:32.165Z,996.39
2018-04-13T01:33:32.145Z,996.37
2018-04-13T01:34:32.179Z,996.40
2018-04-13T01:35:32.116Z,996.41
2018-04-13T01:36:32.400Z,996.43
2018-04-13T01:37:32.086Z,996.38
2018-04-13T01:38:32.121Z,996.37
2018-04-13T01:39:32.061Z,996.35
2018-04-13T01:40:32.102Z,996.35
2018-04-13T01:41:32.035Z,996.34
2018-04-13T01:42:32.324Z,996.36
2018-04-13T01:43:32.009Z,996.36
2018-04-13T01:44:32.012Z,996.37
2018-04-13T01:45:31.991Z,996.36
2018-04-13T01:46:32.034Z,996.37
2018-04-13T01:47:31.973Z,996.34
2018-04-13T01:48:32.242Z,996.35
2018-04-13T01:49:31.934Z,996.37
2018-04-13T01:50:31.926Z,996.37
2018-04-13T01:51:31.906Z,996.43
2018-04-13T01:52:32.244Z,996.43
2018-04-13T01:53:31.879Z,996.45
2018-04-13T01:54:32.176Z,996.44
2018-04-13T01:55:31.855Z,996.43
2018-04-13T01:56:31.844Z,996.40
2018-04-13T01:57:31.829Z,996.40
2018-04-13T01:59:31.850Z,996.35
2018-04-13T02:00:31.784Z,996.34
2018-04-13T02:01:32.074Z,996.32
2018-04-13T02:02:31.760Z,996.28
2018-04-13T02:03:31.755Z,996.24
2018-04-13T02:04:31.786Z,996.25
2018-04-13T02:05:31.723Z,996.23
2018-04-13T02:06:31.808Z,996.21
2018-04-13T02:07:32.008Z,996.21
2018-04-13T02:08:31.981Z,996.22
2018-04-13T02:09:31.670Z,996.26
2018-04-13T02:10:32.305Z,996.23
2018-04-13T02:11:31.640Z,996.23
2018-04-13T02:12:31.632Z,996.22
2018-04-13T02:13:31.916Z,996.18
2018-04-13T02:14:31.604Z,996.16
2018-04-13T02:15:31.594Z,996.17
2018-04-13T02:17:31.667Z,996.14
2018-04-13T02:18:31.556Z,996.15
2018-04-13T02:19:31.535Z,996.13
2018-04-13T02:20:31.822Z,996.16
2018-04-13T02:21:31.505Z,996.13
2018-04-13T02:22:31.493Z,996.11
2018-04-13T02:23:31.732Z,996.09
2018-04-13T02:24:31.469Z,996.08
2018-04-13T02:25:31.454Z,996.09
2018-04-13T02:26:31.441Z,996.09
2018-04-13T02:27:31.767Z,996.08
2018-04-13T02:28:31.412Z,996.11
2018-04-13T02:29:31.450Z,996.12
2018-04-13T02:30:31.383Z,996.13
2018-04-13T02:31:31.368Z,996.17
2018-04-13T02:32:31.358Z,996.18
2018-04-13T02:33:31.346Z,996.17
2018-04-13T02:34:31.727Z,996.16
2018-04-13T02:35:31.370Z,996.16
2018-04-13T02:36:31.300Z,996.20
2018-04-13T02:37:31.295Z,996.19
2018-04-13T02:38:31.274Z,996.19
2018-04-13T02:40:31.559Z,996.18
2018-04-13T02:41:31.586Z,996.18
2018-04-13T02:42:31.221Z,996.21
2018-04-13T02:43:31.204Z,996.20
2018-04-13T02:44:31.201Z,996.21
2018-04-13T02:45:31.183Z,996.24
2018-04-13T02:46:31.168Z,996.25
2018-04-13T02:47:31.527Z,996.28
2018-04-13T02:48:31.134Z,996.28
2018-04-13T02:49:31.123Z,996.32
2018-04-13T02:50:31.208Z,996.33
2018-04-13T02:51:31.102Z,996.30
2018-04-13T02:52:31.082Z,996.34
2018-04-13T02:53:31.116Z,996.33
2018-04-13T02:54:31.360Z,996.36
2018-04-13T02:56:31.026Z,996.28
2018-04-13T02:57:31.013Z,996.28
2018-04-13T02:58:31.003Z,996.25
2018-04-13T02:59:31.034Z,996.26
2018-04-13T03:00:31.027Z,996.21
2018-04-13T03:01:31.260Z,996.20
2018-04-13T03:02:30.943Z,996.20
2018-04-13T03:03:30.989Z,996.21
2018-04-13T03:04:30.925Z,996.21
2018-04-13T03:05:31.352Z,996.21
2018-04-13T03:06:30.893Z,996.18
2018-04-13T03:07:31.228Z,996.23
2018-04-13T03:08:30.874Z,996.22
2018-04-13T03:09:30.854Z,996.22
2018-04-13T03:10:30.833Z,996.18
2018-04-13T03:11:30.888Z,996.20
2018-04-13T03:12:30.804Z,996.24
2018-04-13T03:13:31.092Z,996.22
2018-04-13T03:14:30.825Z,996.20
2018-04-13T03:15:30.766Z,996.20
2018-04-13T03:16:30.747Z,996.23
2018-04-13T03:17:30.801Z,996.23
2018-04-13T03:18:30.729Z,996.27
2018-04-13T03:19:31.007Z,996.24
2018-04-13T03:20:30.693Z,996.21
2018-04-13T03:21:30.680Z,996.24
2018-04-13T03:22:30.669Z,996.26
2018-04-13T03:23:30.706Z,996.24
2018-04-13T03:24:30.645Z,996.26
2018-04-13T03:25:30.947Z,996.26
2018-04-13T03:26:30.608Z,996.22
2018-04-13T03:27:30.593Z,996.25
2018-04-13T03:28:30.591Z,996.29
2018-04-13T03:29:30.719Z,996.30
2018-04-13T03:30:30.553Z,996.28
2018-04-13T03:31:30.841Z,996.33
2018-04-13T03:32:30.539Z,996.29
2018-04-13T03:33:30.510Z,996.33
2018-04-13T03:34:30.503Z,996.33
2018-04-13T03:35:30.546Z,996.32
2018-04-13T03:36:30.472Z,996.35
2018-04-13T03:37:30.760Z,996.35
2018-04-13T03:38:30.438Z,996.35
2018-04-13T03:39:30.425Z,996.40
2018-04-13T03:40:30.413Z,996.42
2018-04-13T03:41:30.449Z,996.42
2018-04-13T03:42:30.385Z,996.48
2018-04-13T03:43:30.673Z,996.47
2018-04-13T03:44:30.355Z,996.49
2018-04-13T03:46:30.329Z,996.51
2018-04-13T03:47:30.362Z,996.53
2018-04-13T03:48:30.301Z,996.48
2018-04-13T03:49:30.285Z,996.52
2018-04-13T03:50:30.573Z,996.53
2018-04-13T03:51:30.257Z,996.55
2018-04-13T03:52:30.242Z,996.59
2018-04-13T03:53:30.278Z,996.61
2018-04-13T03:54:30.242Z,996.60
2018-04-13T03:55:30.198Z,996.62
2018-04-13T03:56:30.357Z,996.62
2018-04-13T03:57:30.551Z,996.58
2018-04-13T03:59:30.212Z,996.63
2018-04-13T04:00:30.439Z,996.60
2018-04-13T04:01:30.468Z,996.61
2018-04-13T04:02:30.163Z,996.63
2018-04-13T04:03:30.084Z,996.63
2018-04-13T04:04:30.408Z,996.65
2018-04-13T04:05:30.116Z,996.63
2018-04-13T04:06:30.076Z,996.68
2018-04-13T04:07:30.071Z,996.65
2018-04-13T04:08:30.008Z,996.66
2018-04-13T04:10:28.883Z,996.70
2018-04-13T04:10:29.978Z,996.71
2018-04-13T04:12:30.302Z,996.70
2018-04-13T04:13:29.939Z,996.72
2018-04-13T04:14:29.917Z,996.71
2018-04-13T04:15:29.909Z,996.74
2018-04-13T04:16:29.937Z,996.73
2018-04-13T04:17:29.875Z,996.75
2018-04-13T04:18:29.969Z,996.75
2018-04-13T04:19:30.900Z,996.73
2018-04-13T04:20:29.827Z,996.76
2018-04-13T04:21:29.814Z,996.75
2018-04-13T04:22:29.804Z,996.78
2018-04-13T04:23:29.789Z,996.74
2018-04-13T04:25:29.766Z,996.79
2018-04-13T04:26:30.062Z,996.77
2018-04-13T04:27:29.733Z,996.80
2018-04-13T04:28:29.711Z,996.82
2018-04-13T04:29:29.805Z,996.82
2018-04-13T04:31:29.738Z,996.84
2018-04-13T04:32:29.656Z,996.82
2018-04-13T04:33:29.946Z,996.83
2018-04-13T04:34:29.677Z,996.83
2018-04-13T04:35:29.609Z,996.85
2018-04-13T04:36:29.605Z,996.85
2018-04-13T04:37:29.634Z,996.85
2018-04-13T04:38:29.670Z,996.86
2018-04-13T04:39:29.851Z,996.89
2018-04-13T04:40:29.537Z,996.90
2018-04-13T04:42:29.860Z,996.91
2018-04-13T04:43:29.493Z,996.95
2018-04-13T04:44:29.480Z,996.90
2018-04-13T04:45:29.768Z,996.93
2018-04-13T04:46:29.452Z,996.91
2018-04-13T04:47:29.445Z,996.96
2018-04-13T04:48:29.475Z,996.95
2018-04-13T04:49:29.419Z,996.95
2018-04-13T04:50:29.609Z,996.93
2018-04-13T04:51:29.697Z,996.94
2018-04-13T04:52:29.689Z,996.92
2018-04-13T04:53:29.355Z,996.90
2018-04-13T04:54:29.688Z,996.92
2018-04-13T04:55:29.322Z,996.90
2018-04-13T04:56:29.308Z,996.91
2018-04-13T04:57:29.294Z,996.93
2018-04-13T04:58:29.281Z,996.91
2018-04-13T04:59:29.263Z,996.95
2018-04-13T05:01:29.301Z,996.99
2018-04-13T05:02:29.223Z,997.06
2018-04-13T05:03:29.506Z,997.07
2018-04-13T05:04:29.192Z,997.06
2018-04-13T05:05:29.180Z,997.10
2018-04-13T05:06:29.167Z,997.12
2018-04-13T05:07:29.303Z,997.15
2018-04-13T05:08:29.137Z,997.16
2018-04-13T05:09:29.476Z,997.20
2018-04-13T05:10:29.164Z,997.21
2018-04-13T05:11:29.099Z,997.20
2018-04-13T05:12:29.190Z,997.29
2018-04-13T05:13:29.117Z,997.31
2018-04-13T05:14:29.053Z,997.33
2018-04-13T05:15:29.336Z,997.38
2018-04-13T05:16:29.135Z,997.42
2018-04-13T05:17:29.108Z,997.45
2018-04-13T05:18:29.193Z,997.43
2018-04-13T05:19:29.028Z,997.44
2018-04-13T05:20:28.966Z,997.42
2018-04-13T05:21:28.953Z,997.40
2018-04-13T05:22:29.694Z,997.39
2018-04-13T05:23:28.918Z,997.41
2018-04-13T05:24:28.960Z,997.43
2018-04-13T05:25:28.898Z,997.40
2018-04-13T05:26:28.882Z,997.47
2018-04-13T05:27:28.970Z,997.49
2018-04-13T05:28:29.015Z,997.47
2018-04-13T05:29:29.293Z,997.47
2018-04-13T05:30:28.833Z,997.50
2018-04-13T05:31:28.809Z,997.50
2018-04-13T05:32:28.809Z,997.54
2018-04-13T05:33:28.781Z,997.52
2018-04-13T05:34:28.917Z,997.51
2018-04-13T05:35:29.053Z,997.49
2018-04-13T05:36:28.744Z,997.46
2018-04-13T05:37:28.732Z,997.42
2018-04-13T05:38:28.712Z,997.45
2018-04-13T05:39:28.703Z,997.48
2018-04-13T05:40:28.786Z,997.52
2018-04-13T05:41:28.969Z,997.46
2018-04-13T05:42:28.658Z,997.52
2018-04-13T05:43:28.657Z,997.55
2018-04-13T05:44:28.634Z,997.55
2018-04-13T05:45:28.621Z,997.51
2018-04-13T05:46:28.751Z,997.54
2018-04-13T05:47:28.586Z,997.48
2018-04-13T05:48:28.876Z,997.51
2018-04-13T05:49:28.562Z,997.56
2018-04-13T05:50:28.548Z,997.59
2018-04-13T05:51:28.536Z,997.57
2018-04-13T05:52:28.571Z,997.60
2018-04-13T05:53:28.526Z,997.55
2018-04-13T05:54:28.792Z,997.60
2018-04-13T05:55:28.486Z,997.59
2018-04-13T05:56:28.464Z,997.55
2018-04-13T05:57:28.455Z,997.47
2018-04-13T05:58:28.497Z,997.50
2018-04-13T05:59:28.426Z,997.52
2018-04-13T06:00:29.256Z,997.54
2018-04-13T06:01:29.173Z,997.54
2018-04-13T06:02:28.495Z,997.55
2018-04-13T06:03:28.368Z,997.56
2018-04-13T06:04:28.440Z,997.61
2018-04-13T06:05:28.521Z,997.62
2018-04-13T06:06:28.732Z,997.64
2018-04-13T06:07:28.345Z,997.62
2018-04-13T06:08:28.328Z,997.66
2018-04-13T06:09:28.286Z,997.65
2018-04-13T06:10:28.332Z,997.70
2018-04-13T06:11:28.261Z,997.73
2018-04-13T06:12:28.548Z,997.67
2018-04-13T06:13:28.314Z,997.68
2018-04-13T06:14:28.298Z,997.73
2018-04-13T06:15:28.285Z,997.71
2018-04-13T06:16:28.264Z,997.73
2018-04-13T06:17:28.244Z,997.73
2018-04-13T06:18:28.589Z,997.73
2018-04-13T06:19:28.202Z,997.74
2018-04-13T06:20:28.150Z,997.78
2018-04-13T06:21:28.387Z,997.80
2018-04-13T06:22:28.173Z,997.80
2018-04-13T06:23:28.105Z,997.82
2018-04-13T06:24:28.441Z,997.83
2018-04-13T06:25:28.070Z,997.86
2018-04-13T06:26:28.057Z,997.85
2018-04-13T06:27:28.045Z,997.86
2018-04-13T06:28:28.110Z,997.94
2018-04-13T06:29:28.119Z,997.96
2018-04-13T06:30:28.307Z,997.96
2018-04-13T06:31:28.011Z,997.99
2018-04-13T06:32:28.032Z,998.02
2018-04-13T06:33:28.100Z,998.05
2018-04-13T06:34:28.356Z,998.06
2018-04-13T06:35:28.053Z,998.03
2018-04-13T06:36:28.281Z,998.04
2018-04-13T06:37:27.913Z,997.99
2018-04-13T06:38:27.982Z,997.98
2018-04-13T06:39:27.896Z,998.02
2018-04-13T06:40:28.116Z,998.04
2018-04-13T06:41:27.999Z,998.03
2018-04-13T06:42:28.237Z,998.07
2018-04-13T06:43:27.948Z,998.08
2018-04-13T06:44:27.828Z,998.09
2018-04-13T06:45:27.813Z,998.08
2018-04-13T06:46:27.810Z,998.08
2018-04-13T06:47:27.892Z,998.06
2018-04-13T06:48:28.077Z,998.05
2018-04-13T06:49:27.825Z,998.03
2018-04-13T06:50:27.754Z,998.06
2018-04-13T06:51:27.742Z,998.07
2018-04-13T06:52:27.729Z,998.05
2018-04-13T06:53:28.192Z,998.05
2018-04-13T06:54:28.005Z,998.04
2018-04-13T06:55:27.747Z,998.07
2018-04-13T06:56:27.675Z,998.06
2018-04-13T06:57:27.662Z,998.05
2018-04-13T06:58:27.652Z,998.06
2018-04-13T06:59:27.644Z,998.03
2018-04-13T07:00:27.931Z,998.08
2018-04-13T07:01:27.665Z,998.08
2018-04-13T07:02:27.658Z,998.11
2018-04-13T07:03:27.659Z,998.11
2018-04-13T07:04:27.587Z,998.09
2018-04-13T07:05:27.565Z,998.14
2018-04-13T07:06:27.894Z,998.15
2018-04-13T07:07:27.601Z,998.18
2018-04-13T07:08:27.624Z,998.20
2018-04-13T07:09:27.525Z,998.16
2018-04-13T07:10:27.518Z,998.17
2018-04-13T07:11:27.505Z,998.18
2018-04-13T07:12:27.841Z,998.18
2018-04-13T07:13:27.526Z,998.19
2018-04-13T07:14:27.470Z,998.13
2018-04-13T07:15:27.452Z,998.17
2018-04-13T07:16:27.443Z,998.13
2018-04-13T07:17:27.534Z,998.15
2018-04-13T07:18:27.796Z,998.15
2018-04-13T07:19:27.520Z,998.20
2018-04-13T07:20:27.461Z,998.20
2018-04-13T07:21:27.398Z,998.20
2018-04-13T07:22:27.451Z,998.24
2018-04-13T07:23:27.512Z,998.27
2018-04-13T07:24:27.706Z,998.26
2018-04-13T07:25:27.362Z,998.30
2018-04-13T07:26:27.413Z,998.32
2018-04-13T07:27:27.414Z,998.29
2018-04-13T07:28:27.308Z,998.24
2018-04-13T07:29:27.301Z,998.25
2018-04-13T07:30:27.639Z,998.21
2018-04-13T07:31:27.321Z,998.20
2018-04-13T07:32:27.261Z,998.26
2018-04-13T07:33:27.251Z,998.30
2018-04-13T07:34:27.422Z,998.27
2018-04-13T07:35:27.233Z,998.25
2018-04-13T07:36:27.578Z,998.26
2018-04-13T07:37:27.209Z,998.27
2018-04-13T07:38:27.202Z,998.27
2018-04-13T07:39:28.690Z,998.24
2018-04-13T07:40:27.226Z,998.26
2018-04-13T07:41:27.166Z,998.30
2018-04-13T07:42:27.467Z,998.27
2018-04-13T07:43:28.453Z,998.26
2018-04-13T07:44:27.166Z,998.25
2018-04-13T07:45:27.125Z,998.29
2018-04-13T07:46:27.221Z,998.30
2018-04-13T07:47:27.107Z,998.31
2018-04-13T07:48:27.397Z,998.33
2018-04-13T07:49:27.090Z,998.32
2018-04-13T07:50:27.176Z,998.34
2018-04-13T07:51:27.129Z,998.31
2018-04-13T07:52:27.422Z,998.35
2018-04-13T07:53:27.043Z,998.37
2018-04-13T07:54:27.332Z,998.39
2018-04-13T07:55:27.025Z,998.43
2018-04-13T07:56:27.073Z,998.45
2018-04-13T07:57:27.009Z,998.50
2018-04-13T07:58:27.051Z,998.54
2018-04-13T07:59:26.986Z,998.60
2018-04-13T08:00:27.347Z,998.64
2018-04-13T08:01:27.016Z,998.62
2018-04-13T08:02:26.962Z,998.65
2018-04-13T08:03:26.937Z,998.67
2018-04-13T08:04:26.982Z,998.81
2018-04-13T08:05:26.924Z,998.73
2018-04-13T08:06:27.278Z,998.76
2018-04-13T08:07:26.911Z,998.82
2018-04-13T08:08:26.897Z,998.81
2018-04-13T08:09:26.889Z,998.71
2018-04-13T08:10:26.986Z,998.65
2018-04-13T08:11:26.869Z,998.57
2018-04-13T08:12:27.824Z,998.59
2018-04-13T08:13:26.854Z,998.58
2018-04-13T08:14:26.866Z,998.65
2018-04-13T08:15:26.924Z,998.66
2018-04-13T08:16:33.154Z,998.58
2018-04-13T08:17:26.811Z,998.54
2018-04-13T08:18:26.811Z,998.51
2018-04-13T08:19:27.194Z,998.49
2018-04-13T08:20:26.893Z,998.51
2018-04-13T08:21:26.779Z,998.50
2018-04-13T08:22:27.526Z,998.51
2018-04-13T08:23:26.755Z,998.49
2018-04-13T08:24:27.519Z,998.49
2018-04-13T08:25:27.185Z,998.52
2018-04-13T08:26:26.746Z,998.52
2018-04-13T08:27:26.785Z,998.55
2018-04-13T08:28:26.784Z,998.56
2018-04-13T08:29:26.806Z,998.58
2018-04-13T08:30:26.701Z,998.62
2018-04-13T08:31:26.684Z,998.65
2018-04-13T08:32:27.077Z,998.68
2018-04-13T08:33:26.691Z,998.68
2018-04-13T08:34:26.717Z,998.69
2018-04-13T08:35:26.840Z,998.73
2018-04-13T08:36:26.647Z,998.70
2018-04-13T08:37:26.635Z,998.69
2018-04-13T08:38:26.679Z,998.69
2018-04-13T08:39:26.928Z,998.65
2018-04-13T08:40:26.688Z,998.65
2018-04-13T08:41:26.706Z,998.68
2018-04-13T08:42:26.609Z,998.68
2018-04-13T08:43:26.791Z,998.68
2018-04-13T08:44:26.582Z,998.70
2018-04-13T08:45:26.882Z,998.68
2018-04-13T08:46:26.715Z,998.67
2018-04-13T08:47:26.552Z,998.68
2018-04-13T08:48:26.550Z,998.73
2018-04-13T08:49:26.582Z,998.73
2018-04-13T08:50:26.583Z,998.72
2018-04-13T08:51:26.816Z,998.73
2018-04-13T08:52:26.636Z,998.70
2018-04-13T08:53:26.549Z,998.71
2018-04-13T08:54:26.496Z,998.74
2018-04-13T08:55:26.592Z,998.76
2018-04-13T08:56:27.419Z,998.81
2018-04-13T08:57:26.826Z,998.84
2018-04-13T08:58:26.809Z,998.87
2018-04-13T08:59:26.466Z,998.87
2018-04-13T09:00:26.444Z,998.86
2018-04-13T09:01:26.442Z,998.92
2018-04-13T09:02:26.447Z,998.91
2018-04-13T09:03:26.717Z,998.91
2018-04-13T09:04:26.472Z,998.91
2018-04-13T09:05:26.557Z,998.93
2018-04-13T09:06:26.452Z,998.96
2018-04-13T09:07:26.393Z,998.96
2018-04-13T09:08:26.383Z,998.96
2018-04-13T09:09:26.716Z,998.98
2018-04-13T09:10:26.381Z,999.05
2018-04-13T09:11:26.649Z,999.07
2018-04-13T09:12:27.093Z,999.12
2018-04-13T09:13:26.572Z,999.11
2018-04-13T09:15:27.567Z,999.03
2018-04-13T09:16:26.307Z,999.06
2018-04-13T09:17:26.305Z,999.07
2018-04-13T09:18:26.335Z,999.03
2018-04-13T09:19:26.297Z,999.05
2018-04-13T09:20:26.626Z,999.07
2018-04-13T09:21:26.674Z,999.11
2018-04-13T09:22:27.091Z,999.10
2018-04-13T09:23:26.261Z,999.07
2018-04-13T09:24:26.294Z,999.08
2018-04-13T09:25:26.637Z,999.14
2018-04-13T09:26:26.243Z,999.12
2018-04-13T09:27:26.532Z,999.12
2018-04-13T09:28:26.222Z,999.11
2018-04-13T09:29:26.209Z,999.14
2018-04-13T09:30:26.250Z,999.13
2018-04-13T09:31:26.194Z,999.17
2018-04-13T09:32:26.243Z,999.17
2018-04-13T09:33:26.594Z,999.14
2018-04-13T09:34:26.177Z,999.16
2018-04-13T09:35:26.176Z,999.15
2018-04-13T09:36:26.212Z,999.14
2018-04-13T09:37:26.185Z,999.18
2018-04-13T09:38:26.281Z,999.21
2018-04-13T09:39:26.461Z,999.25
2018-04-13T09:40:26.240Z,999.25
2018-04-13T09:41:26.595Z,999.28
2018-04-13T09:42:26.124Z,999.26
2018-04-13T09:44:26.135Z,999.27
2018-04-13T09:45:26.446Z,999.26
2018-04-13T09:46:26.101Z,999.25
2018-04-13T09:48:26.077Z,999.22
2018-04-13T09:49:26.067Z,999.23
2018-04-13T09:50:26.110Z,999.20
2018-04-13T09:51:26.054Z,999.21
2018-04-13T09:52:26.347Z,999.18
2018-04-13T09:53:26.084Z,999.15
2018-04-13T09:54:26.038Z,999.13
2018-04-13T09:55:26.026Z,999.14
2018-04-13T09:56:26.015Z,999.10
2018-04-13T09:57:26.007Z,999.15
2018-04-13T09:58:26.654Z,999.20
2018-04-13T09:59:25.996Z,999.13
2018-04-13T10:00:25.995Z,999.12
2018-04-13T10:01:26.209Z,999.16
2018-04-13T10:02:26.131Z,999.14
2018-04-13T10:03:25.980Z,999.16
2018-04-13T10:04:26.608Z,999.19
2018-04-13T10:05:26.095Z,999.17
2018-04-13T10:06:25.946Z,999.35
2018-04-13T10:07:25.933Z,999.36
2018-04-13T10:08:25.932Z,999.38
2018-04-13T10:09:25.936Z,999.42
2018-04-13T10:10:26.576Z,999.49
2018-04-13T10:11:25.973Z,999.46
2018-04-13T10:12:25.907Z,999.38
2018-04-13T10:13:25.931Z,999.36
2018-04-13T10:14:25.929Z,999.37
2018-04-13T10:15:25.911Z,999.37
2018-04-13T10:16:26.477Z,999.30
2018-04-13T10:17:26.569Z,999.26
2018-04-13T10:18:25.865Z,999.22
2018-04-13T10:19:25.910Z,999.18
2018-04-13T10:20:26.005Z,999.12
2018-04-13T10:21:25.843Z,999.13
2018-04-13T10:22:26.242Z,999.11
2018-04-13T10:23:26.201Z,999.01
2018-04-13T10:24:26.081Z,999.09
2018-04-13T10:25:25.825Z,999.09
2018-04-13T10:26:25.819Z,999.11
2018-04-13T10:27:25.811Z,999.08
2018-04-13T10:28:26.108Z,999.13
2018-04-13T10:29:25.850Z,999.16
2018-04-13T10:31:25.792Z,999.07
2018-04-13T10:32:26.256Z,999.09
2018-04-13T10:33:25.770Z,999.09
2018-04-13T10:34:26.068Z,999.09
2018-04-13T10:35:25.827Z,999.03
2018-04-13T10:36:25.747Z,999.04
2018-04-13T10:37:26.419Z,999.04
2018-04-13T10:38:25.741Z,999.08
2018-04-13T10:39:25.949Z,999.05
2018-04-13T10:40:26.074Z,999.02
2018-04-13T10:41:25.717Z,999.00
2018-04-13T10:42:25.725Z,999.02
2018-04-13T10:43:25.707Z,998.96
2018-04-13T10:44:25.704Z,998.98
2018-04-13T10:45:25.689Z,998.98
2018-04-13T10:46:25.732Z,998.95
2018-04-13T10:47:26.185Z,998.94
2018-04-13T10:48:25.732Z,999.00
2018-04-13T10:49:25.670Z,999.05
2018-04-13T10:50:25.661Z,999.01
2018-04-13T10:51:25.646Z,999.08
2018-04-13T10:52:25.643Z,999.02
2018-04-13T10:53:26.037Z,998.99
2018-04-13T10:54:25.725Z,998.92
2018-04-13T10:55:25.622Z,998.91
2018-04-13T10:56:25.666Z,998.90
2018-04-13T10:57:25.621Z,998.90
2018-04-13T10:58:25.645Z,998.85
2018-04-13T10:59:25.903Z,998.82
2018-04-13T11:00:25.640Z,998.78
2018-04-13T11:01:25.618Z,998.77
2018-04-13T11:02:26.063Z,998.82
2018-04-13T11:03:25.582Z,998.90
2018-04-13T11:04:25.589Z,998.90
2018-04-13T11:05:25.870Z,998.92
2018-04-13T11:06:25.631Z,998.91
2018-04-13T11:07:25.554Z,998.91
2018-04-13T11:08:25.652Z,998.96
2018-04-13T11:09:25.557Z,998.96
2018-04-13T11:10:25.555Z,998.93
2018-04-13T11:11:25.933Z,998.90
2018-04-13T11:12:25.575Z,998.87
2018-04-13T11:13:25.641Z,998.84
2018-04-13T11:14:25.617Z,998.79
2018-04-13T11:15:25.708Z,998.76
2018-04-13T11:16:31.286Z,998.73
2018-04-13T11:17:25.581Z,998.73
2018-04-13T11:18:25.562Z,998.77
2018-04-13T11:19:25.588Z,998.76
2018-04-13T11:20:26.029Z,998.80
2018-04-13T11:21:25.500Z,998.84
2018-04-13T11:22:26.088Z,998.81
2018-04-13T11:23:26.039Z,998.86
2018-04-13T11:24:25.930Z,998.83
2018-04-13T11:25:25.608Z,998.89
2018-04-13T11:26:26.988Z,998.92
2018-04-13T11:27:28.487Z,999.02
2018-04-13T11:28:26.560Z,998.91
2018-04-13T11:29:28.396Z,998.85
2018-04-13T11:30:27.314Z,998.89
2018-04-13T11:31:25.829Z,998.87
2018-04-13T11:32:25.974Z,998.89
2018-04-13T11:33:26.416Z,998.88
2018-04-13T11:34:26.782Z,998.88
2018-04-13T11:35:25.763Z,998.90
2018-04-13T11:36:26.982Z,998.92
2018-04-13T11:37:26.292Z,998.92
2018-04-13T11:38:25.796Z,998.91
2018-04-13T11:39:25.433Z,998.86
2018-04-13T11:40:25.379Z,998.86
2018-04-13T11:41:25.920Z,998.85
2018-04-13T11:42:25.379Z,998.84
2018-04-13T11:43:25.469Z,998.81
2018-04-13T11:44:25.500Z,998.82
2018-04-13T11:45:25.504Z,998.83
2018-04-13T11:46:26.243Z,998.81
2018-04-13T11:47:26.137Z,998.84
2018-04-13T11:48:25.441Z,998.89
2018-04-13T11:49:25.929Z,998.92
2018-04-13T11:50:25.364Z,998.95
2018-04-13T11:51:25.543Z,998.91
2018-04-13T11:52:25.323Z,998.85
2018-04-13T11:53:25.612Z,998.84
2018-04-13T11:54:25.307Z,998.78
2018-04-13T11:55:25.355Z,998.76
2018-04-13T11:56:25.307Z,998.74
2018-04-13T11:57:25.292Z,998.66
2018-04-13T11:58:25.386Z,998.68
2018-04-13T11:59:25.583Z,998.66
2018-04-13T12:00:25.278Z,998.71
2018-04-13T12:01:25.339Z,998.69
2018-04-13T12:02:25.281Z,998.69
2018-04-13T12:03:25.260Z,998.73
2018-04-13T12:04:25.697Z,998.78
2018-04-13T12:05:25.631Z,998.85
2018-04-13T12:06:25.637Z,998.85
2018-04-13T12:07:25.285Z,998.85
2018-04-13T12:08:25.232Z,998.85
2018-04-13T12:09:25.303Z,998.89
2018-04-13T12:10:25.216Z,998.95
2018-04-13T12:11:25.595Z,998.99
2018-04-13T12:12:25.273Z,998.99
2018-04-13T12:13:25.391Z,999.03
2018-04-13T12:15:25.199Z,999.09
2018-04-13T12:16:26.097Z,999.11
2018-04-13T12:17:25.701Z,999.08
2018-04-13T12:18:26.077Z,999.10
2018-04-13T12:19:25.395Z,999.09
2018-04-13T12:20:26.183Z,999.13
2018-04-13T12:21:25.796Z,999.10
2018-04-13T12:22:27.006Z,999.10
2018-04-13T12:23:25.441Z,999.17
2018-04-13T12:24:25.138Z,999.22
2018-04-13T12:25:25.278Z,999.29
2018-04-13T12:26:25.154Z,999.25
2018-04-13T12:27:25.227Z,999.24
2018-04-13T12:28:25.115Z,999.23
2018-04-13T12:29:25.402Z,999.22
2018-04-13T12:30:25.096Z,999.23
2018-04-13T12:31:25.136Z,999.30
2018-04-13T12:32:25.283Z,999.28
2018-04-13T12:33:25.082Z,999.25
2018-04-13T12:34:25.138Z,999.26
2018-04-13T12:35:25.363Z,999.25
2018-04-13T12:36:25.152Z,999.26
2018-04-13T12:37:25.350Z,999.26
2018-04-13T12:38:25.054Z,999.33
2018-04-13T12:39:25.073Z,999.32
2018-04-13T12:40:25.334Z,999.31
2018-04-13T12:41:25.449Z,999.29
2018-04-13T12:42:25.225Z,999.35
2018-04-13T12:44:25.017Z,999.42
2018-04-13T12:45:25.105Z,999.45
2018-04-13T12:46:25.009Z,999.41
2018-04-13T12:47:25.296Z,999.38
2018-04-13T12:48:25.092Z,999.41
2018-04-13T12:49:25.012Z,999.34